Zhetygen Airport

Jump to: basic info | weather | comments

Related pages: nearby airports | nearby navaids

Basic information (top)

Location: lon 43.733101, lat 77.119400, elev 1,638 ft / 499 m msl
Status: small_airport

Weather (top)

Current conditions for Almaty Airport 23nm (43km) S (rec'd 2015/04/26 19:00Z):

UAAA 261900Z 17006MPS 9999 -SHRA BKN042CB OVC100 09/05 Q1024 R88/2/0250 NOSIG

Airport forecast for Almaty Airport 23nm (43km) S (rec'd 2015/04/26 18:18Z):

TAF TAF UAAA 261700Z 2618/2718 26008MPS 3000 -SHRA BR BKN020CB OVC100 TX13/2708Z TN06/2701Z 
      TEMPO 2618/2705 VRB16MPS 1000 TSRA SQ BKN005 OVC010CB 
      TEMPO 2705/2715 VRB12MPS TSRA SQ BKN010CB BKN100

Latest comments (top)

No comments yet for Zhetygen Airport

More... (top)

See also NOTAMs and nearby airports and navaids, or visit the Zhetygen Airport page at the main OurAirports website..